Time;durP1;ratioP1;P1;durP2;ratioP2;P2;SDS_P1;SDS_P2;PMS_P1;PMS_P2;Temp;Humidity;BMP_temperature;BMP_pressure;BME280_temperature;BME280_humidity;BME280_pressure;Samples;Min_cycle;Max_cycle;Signal;HPM_P1;HPM_P2
2023/01/24 00:00:52;;;;;;;;;97.80;90.00;16.40;99.90;;;;;;5013445;28;8829;-79
2023/01/24 00:03:18;;;;;;;;;109.80;90.00;16.30;99.90;;;;;;5049280;28;8751;-79
2023/01/24 00:05:46;;;;;;;;;109.80;88.60;16.40;99.90;;;;;;5032881;28;8759;-76
2023/01/24 00:08:13;;;;;;;;;103.20;89.40;16.50;99.90;;;;;;5032704;28;8832;-75
2023/01/24 00:10:40;;;;;;;;;99.20;86.40;16.50;99.90;;;;;;5016927;28;8782;-79
2023/01/24 00:13:07;;;;;;;;;95.00;85.20;16.60;99.90;;;;;;5050049;28;8801;-78
2023/01/24 00:15:33;;;;;;;;;108.20;91.80;16.30;99.90;;;;;;5052193;28;8744;-80
2023/01/24 00:18:00;;;;;;;;;93.80;81.60;16.30;99.90;;;;;;5052478;28;8769;-69
2023/01/24 00:20:29;;;;;;;;;104.20;90.20;16.20;99.90;;;;;;5017913;28;9485;-80
2023/01/24 00:22:56;;;;;;;;;98.80;84.60;16.20;99.90;;;;;;5019235;28;8806;-80
2023/01/24 00:25:22;;;;;;;;;116.60;102.80;16.30;99.90;;;;;;5036017;28;8753;-73
2023/01/24 00:27:49;;;;;;;;;136.40;113.80;16.20;99.90;;;;;;5052005;28;8760;-75
2023/01/24 00:30:16;;;;;;;;;123.60;108.60;16.30;99.90;;;;;;5024494;28;8771;-78
2023/01/24 00:32:43;;;;;;;;;110.00;92.00;16.30;99.90;;;;;;4999358;28;8869;-73
2023/01/24 00:35:09;;;;;;;;;105.20;95.60;16.40;99.90;;;;;;5016598;28;8766;-77
2023/01/24 00:37:36;;;;;;;;;108.60;106.60;16.40;99.90;;;;;;5013797;28;8743;-75
2023/01/24 00:40:02;;;;;;;;;130.20;115.00;16.40;99.90;;;;;;5014717;28;9401;-76
2023/01/24 00:42:29;;;;;;;;;140.80;120.40;16.50;99.90;;;;;;5030790;28;8755;-77
2023/01/24 00:44:56;;;;;;;;;132.80;110.40;16.60;99.90;;;;;;5007321;28;8741;-72
2023/01/24 00:47:22;;;;;;;;;154.80;128.60;16.70;99.90;;;;;;5050881;28;8800;-77
2023/01/24 00:49:49;;;;;;;;;167.25;142.75;16.80;99.90;;;;;;5051352;28;8791;-75
2023/01/24 00:52:16;;;;;;;;;177.75;147.75;16.80;99.90;;;;;;5052480;28;8768;-80
2023/01/24 00:54:42;;;;;;;;;175.25;138.75;16.90;99.90;;;;;;5025205;28;8790;-76
2023/01/24 00:57:09;;;;;;;;;165.20;138.60;16.90;99.90;;;;;;5035209;28;8860;-72
2023/01/24 00:59:37;;;;;;;;;157.80;129.00;17.00;99.90;;;;;;5010904;28;8790;-79
2023/01/24 01:02:04;;;;;;;;;158.20;131.60;17.10;99.90;;;;;;4998714;28;8918;-77
2023/01/24 01:04:31;;;;;;;;;173.20;143.40;17.10;99.90;;;;;;5014728;28;8803;-80
2023/01/24 01:06:57;;;;;;;;;144.40;125.00;17.10;99.90;;;;;;5032939;28;8893;-79
2023/01/24 01:09:24;;;;;;;;;161.40;132.40;17.20;99.90;;;;;;5015622;28;9470;-79
2023/01/24 01:11:50;;;;;;;;;115.40;109.20;17.20;99.90;;;;;;5032326;28;8843;-79
2023/01/24 01:14:17;;;;;;;;;106.60;90.20;17.30;99.90;;;;;;5019105;28;8804;-72
2023/01/24 01:16:44;;;;;;;;;95.40;89.60;17.30;99.90;;;;;;5051892;28;8745;-78
2023/01/24 01:19:11;;;;;;;;;94.80;84.40;17.30;99.90;;;;;;5045004;28;8759;-80
2023/01/24 01:21:37;;;;;;;;;91.60;84.60;17.40;99.90;;;;;;5034813;28;8820;-76
2023/01/24 01:24:04;;;;;;;;;91.40;81.00;17.50;99.90;;;;;;5052281;28;8902;-81
2023/01/24 01:26:31;;;;;;;;;82.60;66.60;17.70;99.90;;;;;;5018267;28;8780;-81
2023/01/24 01:28:58;;;;;;;;;91.60;77.60;17.70;99.90;;;;;;5053408;28;9468;-79
2023/01/24 01:31:24;;;;;;;;;92.00;79.80;17.60;99.90;;;;;;5019069;28;8890;-77
2023/01/24 01:33:51;;;;;;;;;87.20;78.00;17.70;99.90;;;;;;5035659;28;8747;-83
2023/01/24 01:36:18;;;;;;;;;82.00;71.60;17.80;99.90;;;;;;5002129;28;8747;-81
2023/01/24 01:38:44;;;;;;;;;85.60;74.40;17.80;99.90;;;;;;5001677;28;8798;-76
2023/01/24 01:41:12;;;;;;;;;92.00;77.20;17.90;99.90;;;;;;5016769;28;8779;-75
2023/01/24 01:44:37;;;;;;;;;84.60;74.40;17.80;99.90;;;;;;5034248;28;8844;-83
2023/01/24 01:46:26;;;;;;;;;82.40;72.40;17.90;99.90;;;;;;5031338;28;8893;-79
2023/01/24 04:44:43;;;;;;;;;61.80;49.00;24.00;93.10;;;;;;5075624;27;13650;-86
2023/01/24 04:47:10;;;;;;;;;70.40;55.40;24.30;93.50;;;;;;4952018;28;8846;-86
2023/01/24 04:49:36;;;;;;;;;70.00;56.50;24.40;93.50;;;;;;4968487;28;8752;-82
2023/01/24 04:52:03;;;;;;;;;71.50;55.50;24.50;93.30;;;;;;4952123;28;8748;-82
2023/01/24 04:54:30;;;;;;;;;62.75;49.75;24.70;92.60;;;;;;4967955;28;8799;-86
2023/01/24 04:56:56;;;;;;;;;72.25;56.25;24.80;92.70;;;;;;4968152;28;8788;-82
2023/01/24 04:59:23;;;;;;;;;64.00;50.25;24.90;92.40;;;;;;4950589;28;8744;-82
2023/01/24 05:01:50;;;;;;;;;60.25;48.00;25.10;92.50;;;;;;4983578;28;8841;-88
2023/01/24 05:04:16;;;;;;;;;62.50;49.25;25.10;91.00;;;;;;4951919;28;8767;-80
2023/01/24 05:06:43;;;;;;;;;65.75;52.00;25.30;91.40;;;;;;4951403;28;8744;-83
2023/01/24 05:09:09;;;;;;;;;62.50;49.75;25.20;91.40;;;;;;4951034;28;8780;-81
2023/01/24 05:11:36;;;;;;;;;62.50;49.75;25.40;91.10;;;;;;4950582;28;8787;-87
2023/01/24 05:14:03;;;;;;;;;62.00;50.50;25.50;90.90;;;;;;4967254;28;8794;-86
2023/01/24 05:16:30;;;;;;;;;65.33;52.00;25.50;91.00;;;;;;4965553;28;8766;-80
2023/01/24 05:18:56;;;;;;;;;62.75;47.25;25.60;91.10;;;;;;4966219;28;8778;-78
2023/01/24 05:21:23;;;;;;;;;65.25;51.75;25.60;90.30;;;;;;4964999;28;8756;-80
2023/01/24 05:23:51;;;;;;;;;57.75;47.50;25.60;90.10;;;;;;4966384;28;8823;-78
2023/01/24 05:26:18;;;;;;;;;66.00;50.50;25.60;90.60;;;;;;4965653;28;8802;-80
2023/01/24 05:28:45;;;;;;;;;67.00;51.50;25.70;90.40;;;;;;4965690;28;8751;-87
2023/01/24 05:31:12;;;;;;;;;58.00;48.75;25.80;90.70;;;;;;4963587;28;8894;-80
2023/01/24 05:33:38;;;;;;;;;70.00;53.00;26.10;90.10;;;;;;5029246;28;8929;-80
2023/01/24 05:36:10;;;;;;;;;63.75;49.50;26.10;90.30;;;;;;5029889;28;8754;-89
2023/01/24 05:38:37;;;;;;;;;65.50;51.25;26.20;89.90;;;;;;5031289;28;8793;-95
2023/01/24 05:41:05;;;;;;;;;67.25;53.50;26.20;89.90;;;;;;5030243;28;8917;-81
2023/01/24 05:43:32;;;;;;;;;61.25;49.75;26.40;89.90;;;;;;5028765;28;8844;-80
2023/01/24 05:45:59;;;;;;;;;62.50;47.75;26.60;88.50;;;;;;5030735;28;8858;-79
2023/01/24 05:48:26;;;;;;;;;62.25;48.75;26.60;87.90;;;;;;5046851;28;8775;-89
2023/01/24 05:55:38;;;;;;;;;66.50;51.75;26.70;85.20;;;;;;5120284;27;13460;-79
2023/01/24 05:58:04;;;;;;;;;60.50;48.50;26.80;85.50;;;;;;5073210;28;8779;-79
2023/01/24 06:00:31;;;;;;;;;59.25;47.75;26.90;84.50;;;;;;5055487;28;8775;-79
2023/01/24 06:03:02;;;;;;;;;62.50;49.50;26.90;85.70;;;;;;5072492;28;8755;-90
2023/01/24 06:05:29;;;;;;;;;60.75;49.00;27.10;84.50;;;;;;5072930;28;8767;-86
2023/01/24 06:07:55;;;;;;;;;60.50;46.25;27.10;83.60;;;;;;5055138;28;8866;-87
2023/01/24 06:10:22;;;;;;;;;58.25;46.75;27.20;83.40;;;;;;5055312;28;8735;-89
2023/01/24 06:12:48;;;;;;;;;62.25;47.50;27.30;84.10;;;;;;5088538;28;8771;-88
2023/01/24 06:15:15;;;;;;;;;59.50;48.50;27.40;83.20;;;;;;5075566;28;8814;-88
2023/01/24 06:17:42;;;;;;;;;58.00;46.25;27.30;83.00;;;;;;5032168;28;8779;-80
2023/01/24 06:20:11;;;;;;;;;54.50;45.25;27.40;84.40;;;;;;5049035;28;8829;-81
2023/01/24 06:22:44;;;;;;;;;63.25;49.50;27.20;83.40;;;;;;5031362;28;8780;-81
2023/01/24 06:25:22;;;;;;;;;61.75;47.00;27.40;84.50;;;;;;5050011;28;8842;-88
2023/01/24 06:27:49;;;;;;;;;53.50;44.25;27.50;84.10;;;;;;5032457;28;10893;-88
2023/01/24 06:30:17;;;;;;;;;59.50;48.25;27.50;84.10;;;;;;5050804;28;8910;-88
2023/01/24 06:33:11;;;;;;;;;58.25;45.50;27.70;82.90;;;;;;5051849;28;8774;-82
2023/01/24 06:35:43;;;;;;;;;62.75;47.00;27.70;82.40;;;;;;5068889;28;8758;-81
2023/01/24 06:38:23;;;;;;;;;61.75;48.25;27.70;84.50;;;;;;5067859;28;8754;-81
2023/01/24 06:40:57;;;;;;;;;60.25;48.50;27.90;84.00;;;;;;5069504;28;8773;-81
2023/01/24 06:43:24;;;;;;;;;56.00;42.50;28.10;82.30;;;;;;5053198;28;8733;-90
2023/01/24 06:45:50;;;;;;;;;59.50;44.75;28.20;83.20;;;;;;5084434;28;8775;-88
2023/01/24 06:48:17;;;;;;;;;64.75;48.25;28.20;82.10;;;;;;5071715;28;8742;-82
2023/01/24 06:50:43;;;;;;;;;59.25;47.50;28.10;80.80;;;;;;5072056;28;8762;-82
2023/01/24 06:54:58;;;;;;;;;61.25;46.75;28.20;79.10;;;;;;5018269;27;2119123;-83
2023/01/24 06:57:25;;;;;;;;;60.75;46.50;28.10;81.20;;;;;;5041819;28;8830;-75
2023/01/24 06:59:52;;;;;;;;;60.00;48.50;28.20;81.50;;;;;;5072599;28;8795;-80
2023/01/24 07:02:18;;;;;;;;;61.25;48.00;28.20;81.10;;;;;;5057665;28;8780;-82
2023/01/24 07:04:45;;;;;;;;;63.25;47.75;28.20;80.80;;;;;;5057069;28;8801;-77
2023/01/24 07:07:11;;;;;;;;;60.50;47.75;28.20;82.40;;;;;;5073218;28;8752;-79
2023/01/24 07:09:38;;;;;;;;;58.50;46.75;28.40;80.70;;;;;;5042405;28;8776;-80
2023/01/24 07:12:07;;;;;;;;;53.75;43.25;28.50;78.80;;;;;;5076651;28;8748;-82
2023/01/24 07:14:34;;;;;;;;;57.50;45.00;28.40;79.40;;;;;;5056023;28;8787;-73
2023/01/24 07:17:01;;;;;;;;;60.75;47.50;28.30;80.60;;;;;;5073818;28;8750;-87
2023/01/24 07:19:28;;;;;;;;;57.50;45.75;28.30;81.70;;;;;;5054705;28;8739;-77
2023/01/24 07:21:56;;;;;;;;;62.75;49.00;28.50;81.40;;;;;;5056101;28;8731;-75
2023/01/24 07:24:27;;;;;;;;;58.25;46.25;28.70;80.80;;;;;;5038446;28;8871;-80
2023/01/24 07:26:55;;;;;;;;;53.75;42.50;28.70;79.90;;;;;;5022672;28;8817;-72
2023/01/24 07:29:21;;;;;;;;;60.50;44.50;28.90;79.50;;;;;;5058015;28;8773;-75
2023/01/24 07:31:48;;;;;;;;;57.00;43.00;28.70;77.30;;;;;;5041706;28;8768;-85
2023/01/24 07:34:16;;;;;;;;;62.50;45.25;28.60;76.30;;;;;;5042351;28;8783;-79
2023/01/24 07:36:43;;;;;;;;;55.50;44.75;28.60;75.50;;;;;;5041276;28;9524;-72
2023/01/24 07:39:10;;;;;;;;;56.50;45.00;28.50;75.30;;;;;;5074851;28;8764;-81
2023/01/24 07:41:37;;;;;;;;;49.75;40.00;28.60;75.70;;;;;;5047525;28;9468;-76
2023/01/24 07:44:05;;;;;;;;;50.00;41.50;28.70;76.50;;;;;;5058533;28;8888;-82
2023/01/24 07:46:33;;;;;;;;;51.50;41.50;28.90;75.20;;;;;;5057667;28;8752;-83
2023/01/24 07:49:00;;;;;;;;;52.50;43.75;29.20;74.10;;;;;;5058625;28;8721;-70
2023/01/24 07:51:26;;;;;;;;;52.75;43.25;29.20;73.40;;;;;;5072058;28;8776;-81
2023/01/24 07:53:53;;;;;;;;;56.50;44.00;29.20;74.60;;;;;;5057243;28;8800;-84
2023/01/24 07:56:20;;;;;;;;;56.50;44.75;29.30;73.50;;;;;;5074312;28;8773;-84
2023/01/24 07:58:46;;;;;;;;;56.00;43.00;29.20;73.00;;;;;;5057554;28;8767;-76
2023/01/24 08:01:17;;;;;;;;;51.25;43.00;29.30;72.00;;;;;;5041634;28;8776;-79
2023/01/24 08:03:44;;;;;;;;;51.75;41.00;29.10;73.60;;;;;;5074335;28;8835;-78
2023/01/24 08:08:11;;;;;;;;;51.00;41.75;29.00;72.60;;;;;;5064619;28;13456;-92
2023/01/24 08:10:37;;;;;;;;;48.75;41.00;29.10;73.70;;;;;;5018642;28;8744;-83
2023/01/24 08:13:04;;;;;;;;;50.75;41.75;29.10;73.30;;;;;;5036432;28;8752;-91
2023/01/24 08:15:31;;;;;;;;;52.75;42.75;29.10;72.30;;;;;;5034182;28;8815;-87
2023/01/24 08:17:57;;;;;;;;;55.75;43.00;29.20;71.90;;;;;;5049336;28;8787;-88
2023/01/24 08:20:24;;;;;;;;;53.25;43.75;29.20;72.10;;;;;;5032083;28;8780;-85
2023/01/24 08:22:55;;;;;;;;;52.00;43.25;29.20;72.00;;;;;;5049509;28;8760;-84
2023/01/24 08:25:22;;;;;;;;;53.00;43.75;29.20;71.80;;;;;;5050239;28;8768;-90
2023/01/24 08:27:48;;;;;;;;;52.00;44.25;29.20;72.40;;;;;;5032606;28;8792;-84
2023/01/24 08:30:15;;;;;;;;;56.00;44.00;29.10;71.60;;;;;;5065921;28;8981;-83
2023/01/24 08:32:42;;;;;;;;;55.75;44.25;29.10;71.60;;;;;;5035603;28;8799;-83
2023/01/24 08:35:09;;;;;;;;;55.00;43.00;29.10;71.60;;;;;;5021995;28;8796;-90
2023/01/24 08:37:35;;;;;;;;;51.00;41.50;29.20;73.60;;;;;;5018250;28;8756;-85
2023/01/24 08:40:02;;;;;;;;;51.75;42.75;29.40;73.40;;;;;;5051990;28;8732;-86
2023/01/24 08:42:28;;;;;;;;;56.00;45.00;29.40;72.10;;;;;;5018834;28;8760;-84
2023/01/24 08:44:55;;;;;;;;;52.25;42.00;29.50;71.70;;;;;;5050877;28;8829;-83
2023/01/24 08:47:22;;;;;;;;;54.00;44.50;29.40;71.50;;;;;;5032977;28;8756;-83
2023/01/24 08:49:49;;;;;;;;;54.75;42.25;29.40;71.80;;;;;;5033861;28;8776;-94
2023/01/24 08:52:16;;;;;;;;;55.00;45.25;29.20;71.80;;;;;;5052412;28;8749;-91
2023/01/24 08:54:43;;;;;;;;;52.75;41.75;29.00;73.00;;;;;;5035104;28;8777;-83
2023/01/24 08:57:10;;;;;;;;;53.50;43.75;29.00;70.90;;;;;;5017619;28;8807;-84
2023/01/24 08:59:36;;;;;;;;;55.00;44.50;29.10;70.20;;;;;;5032274;28;8795;-85
2023/01/24 09:02:04;;;;;;;;;54.75;41.25;28.90;70.40;;;;;;5051628;28;8796;-91
2023/01/24 09:04:31;;;;;;;;;55.00;43.00;28.80;71.20;;;;;;5033039;28;8759;-84
2023/01/24 09:06:57;;;;;;;;;53.00;43.25;28.90;72.30;;;;;;5032780;28;8854;-82
2023/01/24 09:09:25;;;;;;;;;54.75;42.75;28.80;72.70;;;;;;5048257;28;8969;-83
2023/01/24 09:11:52;;;;;;;;;55.75;43.50;28.70;73.30;;;;;;5033838;28;8768;-83
2023/01/24 09:14:19;;;;;;;;;57.00;44.00;28.70;72.00;;;;;;5048790;28;8768;-81
2023/01/24 09:16:45;;;;;;;;;53.50;42.25;28.80;72.40;;;;;;5016090;28;8764;-86
2023/01/24 09:19:12;;;;;;;;;57.50;45.50;28.80;71.70;;;;;;5038109;28;8764;-82
2023/01/24 09:21:39;;;;;;;;;54.75;44.25;28.70;71.30;;;;;;5003266;28;8771;-82
2023/01/24 09:24:06;;;;;;;;;51.00;41.25;28.70;73.30;;;;;;5035972;28;8772;-81
2023/01/24 09:26:33;;;;;;;;;50.50;42.00;28.60;73.90;;;;;;5019728;28;8789;-91
2023/01/24 09:28:59;;;;;;;;;51.25;41.25;28.60;73.30;;;;;;5018891;28;8842;-91
2023/01/24 09:31:26;;;;;;;;;53.00;39.75;28.50;72.70;;;;;;5019636;28;8760;-82
2023/01/24 09:33:52;;;;;;;;;51.50;42.25;28.60;71.80;;;;;;5019329;28;8771;-83
2023/01/24 09:36:19;;;;;;;;;54.00;44.75;28.70;72.30;;;;;;5018380;28;8767;-83
2023/01/24 09:38:45;;;;;;;;;47.50;37.75;28.60;73.90;;;;;;5002803;28;8764;-83
2023/01/24 09:41:35;;;;;;;;;55.25;43.75;28.40;73.60;;;;;;5018636;28;8760;-83
2023/01/24 09:44:25;;;;;;;;;60.00;48.00;28.40;71.70;;;;;;5019514;28;8776;-83
2023/01/24 09:46:53;;;;;;;;;54.25;44.50;28.40;73.00;;;;;;4986890;28;8913;-83
2023/01/24 09:49:29;;;;;;;;;55.00;45.00;28.30;74.40;;;;;;4983648;28;8751;-82
2023/01/24 09:53:46;;;;;;;;;54.50;42.50;28.30;73.80;;;;;;5059728;28;13529;-85
2023/01/24 09:56:26;;;;;;;;;57.00;44.25;28.30;73.20;;;;;;5036371;28;8760;-72
2023/01/24 09:59:17;;;;;;;;;53.00;44.00;28.30;73.80;;;;;;5052994;28;8771;-68
2023/01/24 10:01:44;;;;;;;;;54.50;44.00;28.30;74.60;;;;;;5019242;28;8747;-85
2023/01/24 10:04:31;;;;;;;;;54.50;43.75;28.30;75.10;;;;;;5049980;28;8824;-83
2023/01/24 10:06:58;;;;;;;;;52.25;42.50;28.20;74.40;;;;;;5023984;28;9412;-73
2023/01/24 10:09:37;;;;;;;;;54.25;44.50;28.20;72.70;;;;;;5033407;28;8751;-84
2023/01/24 10:12:28;;;;;;;;;54.00;44.25;28.20;72.70;;;;;;5032681;28;8802;-78
2023/01/24 10:15:13;;;;;;;;;56.75;46.50;28.10;73.90;;;;;;5073707;28;8765;-84
2023/01/24 10:18:00;;;;;;;;;57.50;46.25;28.00;74.40;;;;;;5053558;28;8783;-80
2023/01/24 10:20:32;;;;;;;;;51.25;39.25;27.90;74.80;;;;;;5086189;28;8869;-79
2023/01/24 10:23:21;;;;;;;;;56.00;45.00;27.90;74.20;;;;;;5054367;28;9114;-81
2023/01/24 10:26:10;;;;;;;;;54.50;43.50;27.80;75.70;;;;;;5053623;28;8752;-90
2023/01/24 10:28:42;;;;;;;;;57.50;44.25;27.80;77.20;;;;;;5037735;28;9017;-81
2023/01/24 10:31:32;;;;;;;;;56.25;44.25;27.70;77.00;;;;;;5053674;28;8771;-86
2023/01/24 10:36:29;;;;;;;;;53.75;42.50;27.50;76.80;;;;;;4983874;27;2088266;-81
2023/01/24 10:38:55;;;;;;;;;54.00;44.25;27.40;78.80;;;;;;5049719;28;8894;-81
2023/01/24 10:43:46;;;;;;;;;45.50;35.75;27.20;78.40;;;;;;5052666;28;13518;-81
2023/01/24 10:46:18;;;;;;;;;53.25;45.25;27.20;79.40;;;;;;5014190;28;8735;-89
2023/01/24 10:48:51;;;;;;;;;58.25;43.75;27.10;79.10;;;;;;5014178;28;8845;-81
2023/01/24 10:51:19;;;;;;;;;58.25;45.25;27.10;78.40;;;;;;5030096;28;8782;-81
2023/01/24 10:56:09;;;;;;;;;52.75;42.25;27.00;77.90;;;;;;5043312;27;2096764;-89
2023/01/24 10:58:56;;;;;;;;;54.50;43.00;27.00;79.50;;;;;;5063183;28;8725;-85
2023/01/24 11:01:32;;;;;;;;;54.50;45.00;26.90;78.70;;;;;;5096658;28;8720;-78
2023/01/24 11:03:59;;;;;;;;;65.00;49.00;26.80;79.20;;;;;;5096610;28;8744;-82
2023/01/24 11:06:29;;;;;;;;;63.50;47.25;26.70;79.70;;;;;;5063860;28;8732;-76
2023/01/24 11:09:01;;;;;;;;;63.25;47.25;26.60;79.70;;;;;;5115349;28;8835;-88
2023/01/24 11:11:32;;;;;;;;;68.50;53.25;26.50;79.50;;;;;;5063945;28;8759;-84
2023/01/24 11:14:00;;;;;;;;;71.40;57.20;26.50;79.90;;;;;;5074442;28;8788;-80
2023/01/24 11:16:51;;;;;;;;;77.20;64.40;26.40;80.00;;;;;;5023728;28;8732;-79
2023/01/24 11:19:21;;;;;;;;;85.00;74.80;26.30;80.20;;;;;;5076511;28;8734;-84
2023/01/24 11:21:56;;;;;;;;;95.20;85.80;26.20;80.10;;;;;;5076289;28;8781;-81
2023/01/24 11:24:23;;;;;;;;;106.80;91.20;26.20;80.20;;;;;;5075237;28;9221;-77
2023/01/24 11:27:18;;;;;;;;;91.20;78.60;26.10;80.40;;;;;;5023324;28;8748;-87
